sensor_id;sensor_type;location;lat;lon;timestamp;P1;durP1;ratioP1;P2;durP2;ratioP2
70946;SDS011;58605;48.700;8.760;2022-09-27T00:01:26;1.30;;;1.20;;
70946;SDS011;58605;48.700;8.760;2022-09-27T00:03:53;1.10;;;1.10;;
70946;SDS011;58605;48.700;8.760;2022-09-27T00:06:21;1.60;;;1.50;;
70946;SDS011;58605;48.700;8.760;2022-09-27T00:08:49;1.10;;;1.00;;
70946;SDS011;58605;48.700;8.760;2022-09-27T00:11:17;1.67;;;1.30;;
70946;SDS011;58605;48.700;8.760;2022-09-27T00:13:48;1.53;;;1.30;;
70946;SDS011;58605;48.700;8.760;2022-09-27T00:16:15;1.30;;;1.20;;
70946;SDS011;58605;48.700;8.760;2022-09-27T00:18:41;1.07;;;1.07;;
70946;SDS011;58605;48.700;8.760;2022-09-27T00:21:08;1.47;;;1.37;;
70946;SDS011;58605;48.700;8.760;2022-09-27T00:23:36;1.17;;;1.17;;
70946;SDS011;58605;48.700;8.760;2022-09-27T00:26:03;1.17;;;1.17;;
70946;SDS011;58605;48.700;8.760;2022-09-27T00:28:30;1.00;;;1.00;;
70946;SDS011;58605;48.700;8.760;2022-09-27T00:30:57;1.47;;;1.30;;
70946;SDS011;58605;48.700;8.760;2022-09-27T00:33:25;1.20;;;1.20;;
70946;SDS011;58605;48.700;8.760;2022-09-27T00:35:52;1.40;;;1.30;;
70946;SDS011;58605;48.700;8.760;2022-09-27T00:38:18;2.23;;;1.40;;
70946;SDS011;58605;48.700;8.760;2022-09-27T00:40:44;1.10;;;1.10;;
70946;SDS011;58605;48.700;8.760;2022-09-27T00:43:14;1.30;;;1.20;;
70946;SDS011;58605;48.700;8.760;2022-09-27T00:45:42;1.10;;;1.10;;
70946;SDS011;58605;48.700;8.760;2022-09-27T00:48:10;1.30;;;1.30;;
70946;SDS011;58605;48.700;8.760;2022-09-27T00:50:44;1.20;;;1.20;;
70946;SDS011;58605;48.700;8.760;2022-09-27T00:53:14;1.30;;;1.30;;
70946;SDS011;58605;48.700;8.760;2022-09-27T00:55:45;1.23;;;1.20;;
70946;SDS011;58605;48.700;8.760;2022-09-27T00:58:13;1.00;;;1.00;;
70946;SDS011;58605;48.700;8.760;2022-09-27T01:00:43;1.20;;;1.10;;
70946;SDS011;58605;48.700;8.760;2022-09-27T01:03:13;1.13;;;1.00;;
70946;SDS011;58605;48.700;8.760;2022-09-27T01:05:47;1.20;;;1.20;;
70946;SDS011;58605;48.700;8.760;2022-09-27T01:08:14;1.47;;;1.20;;
70946;SDS011;58605;48.700;8.760;2022-09-27T01:10:46;0.93;;;0.93;;
70946;SDS011;58605;48.700;8.760;2022-09-27T01:13:22;1.40;;;1.30;;
70946;SDS011;58605;48.700;8.760;2022-09-27T01:15:56;1.00;;;1.00;;
70946;SDS011;58605;48.700;8.760;2022-09-27T01:18:30;1.00;;;1.00;;
70946;SDS011;58605;48.700;8.760;2022-09-27T01:24:10;1.30;;;1.20;;
70946;SDS011;58605;48.700;8.760;2022-09-27T01:27:00;1.53;;;1.20;;
70946;SDS011;58605;48.700;8.760;2022-09-27T01:30:14;1.20;;;1.20;;
70946;SDS011;58605;48.700;8.760;2022-09-27T01:32:53;0.90;;;0.90;;
70946;SDS011;58605;48.700;8.760;2022-09-27T01:35:28;1.40;;;1.30;;
70946;SDS011;58605;48.700;8.760;2022-09-27T01:38:02;3.00;;;1.37;;
70946;SDS011;58605;48.700;8.760;2022-09-27T01:40:38;1.63;;;1.40;;
70946;SDS011;58605;48.700;8.760;2022-09-27T01:43:08;1.00;;;1.00;;
70946;SDS011;58605;48.700;8.760;2022-09-27T01:45:42;1.27;;;1.17;;
70946;SDS011;58605;48.700;8.760;2022-09-27T01:48:14;1.70;;;1.30;;
70946;SDS011;58605;48.700;8.760;2022-09-27T01:50:44;2.27;;;1.17;;
70946;SDS011;58605;48.700;8.760;2022-09-27T01:53:15;2.57;;;1.20;;
70946;SDS011;58605;48.700;8.760;2022-09-27T01:55:46;1.40;;;1.10;;
70946;SDS011;58605;48.700;8.760;2022-09-27T01:58:16;1.27;;;1.20;;
70946;SDS011;58605;48.700;8.760;2022-09-27T02:00:48;1.37;;;1.27;;
70946;SDS011;58605;48.700;8.760;2022-09-27T02:03:17;2.17;;;1.20;;
70946;SDS011;58605;48.700;8.760;2022-09-27T02:05:46;2.07;;;1.40;;
70946;SDS011;58605;48.700;8.760;2022-09-27T02:08:17;1.73;;;1.50;;
70946;SDS011;58605;48.700;8.760;2022-09-27T02:10:49;2.33;;;1.43;;
70946;SDS011;58605;48.700;8.760;2022-09-27T02:13:19;1.20;;;1.10;;
70946;SDS011;58605;48.700;8.760;2022-09-27T02:15:50;0.97;;;0.97;;
70946;SDS011;58605;48.700;8.760;2022-09-27T02:18:22;0.90;;;0.80;;
70946;SDS011;58605;48.700;8.760;2022-09-27T02:20:54;0.70;;;0.70;;
70946;SDS011;58605;48.700;8.760;2022-09-27T02:23:24;0.87;;;0.87;;
70946;SDS011;58605;48.700;8.760;2022-09-27T02:25:56;1.53;;;1.10;;
70946;SDS011;58605;48.700;8.760;2022-09-27T02:28:25;0.87;;;0.87;;
70946;SDS011;58605;48.700;8.760;2022-09-27T02:30:55;0.70;;;0.70;;
70946;SDS011;58605;48.700;8.760;2022-09-27T02:33:22;1.00;;;1.00;;
70946;SDS011;58605;48.700;8.760;2022-09-27T02:35:52;1.53;;;1.07;;
70946;SDS011;58605;48.700;8.760;2022-09-27T02:38:18;1.10;;;1.00;;
70946;SDS011;58605;48.700;8.760;2022-09-27T02:40:45;1.80;;;1.00;;
70946;SDS011;58605;48.700;8.760;2022-09-27T02:43:12;1.87;;;1.30;;
70946;SDS011;58605;48.700;8.760;2022-09-27T02:45:41;1.70;;;1.50;;
70946;SDS011;58605;48.700;8.760;2022-09-27T02:48:18;1.77;;;1.27;;
70946;SDS011;58605;48.700;8.760;2022-09-27T02:50:58;1.57;;;1.30;;
70946;SDS011;58605;48.700;8.760;2022-09-27T02:53:37;10.33;;;1.80;;
70946;SDS011;58605;48.700;8.760;2022-09-27T02:56:22;2.40;;;1.37;;
70946;SDS011;58605;48.700;8.760;2022-09-27T02:58:57;1.83;;;1.40;;
70946;SDS011;58605;48.700;8.760;2022-09-27T03:01:33;2.00;;;1.73;;
70946;SDS011;58605;48.700;8.760;2022-09-27T03:04:09;2.33;;;1.57;;
70946;SDS011;58605;48.700;8.760;2022-09-27T03:06:40;2.07;;;1.63;;
70946;SDS011;58605;48.700;8.760;2022-09-27T03:09:12;2.00;;;1.40;;
70946;SDS011;58605;48.700;8.760;2022-09-27T03:11:49;3.07;;;1.80;;
70946;SDS011;58605;48.700;8.760;2022-09-27T03:14:15;4.33;;;1.97;;
70946;SDS011;58605;48.700;8.760;2022-09-27T03:16:41;5.13;;;2.37;;
70946;SDS011;58605;48.700;8.760;2022-09-27T03:19:08;4.13;;;2.10;;
70946;SDS011;58605;48.700;8.760;2022-09-27T03:21:35;3.90;;;2.53;;
70946;SDS011;58605;48.700;8.760;2022-09-27T03:24:01;5.23;;;2.07;;
70946;SDS011;58605;48.700;8.760;2022-09-27T03:26:27;2.37;;;1.97;;
70946;SDS011;58605;48.700;8.760;2022-09-27T03:28:54;2.57;;;2.07;;
70946;SDS011;58605;48.700;8.760;2022-09-27T03:31:20;2.77;;;1.97;;
70946;SDS011;58605;48.700;8.760;2022-09-27T03:33:46;6.87;;;2.53;;
70946;SDS011;58605;48.700;8.760;2022-09-27T03:36:13;4.13;;;2.20;;
70946;SDS011;58605;48.700;8.760;2022-09-27T03:38:40;4.47;;;2.60;;
70946;SDS011;58605;48.700;8.760;2022-09-27T03:41:06;6.03;;;2.33;;
70946;SDS011;58605;48.700;8.760;2022-09-27T03:43:32;5.13;;;2.33;;
70946;SDS011;58605;48.700;8.760;2022-09-27T03:45:58;4.97;;;2.57;;
70946;SDS011;58605;48.700;8.760;2022-09-27T03:48:24;4.47;;;2.87;;
70946;SDS011;58605;48.700;8.760;2022-09-27T03:50:50;5.20;;;2.57;;
70946;SDS011;58605;48.700;8.760;2022-09-27T03:53:18;4.73;;;2.47;;
70946;SDS011;58605;48.700;8.760;2022-09-27T03:55:44;4.67;;;2.27;;
70946;SDS011;58605;48.700;8.760;2022-09-27T03:58:12;4.10;;;2.50;;
70946;SDS011;58605;48.700;8.760;2022-09-27T04:00:38;4.93;;;2.70;;
70946;SDS011;58605;48.700;8.760;2022-09-27T04:03:05;7.00;;;2.43;;
70946;SDS011;58605;48.700;8.760;2022-09-27T04:05:31;3.83;;;2.13;;
70946;SDS011;58605;48.700;8.760;2022-09-27T04:07:57;5.00;;;2.00;;
70946;SDS011;58605;48.700;8.760;2022-09-27T04:10:25;2.70;;;2.00;;
70946;SDS011;58605;48.700;8.760;2022-09-27T04:12:51;4.50;;;2.30;;
70946;SDS011;58605;48.700;8.760;2022-09-27T04:15:17;5.50;;;2.20;;
70946;SDS011;58605;48.700;8.760;2022-09-27T04:17:43;2.17;;;1.73;;
70946;SDS011;58605;48.700;8.760;2022-09-27T04:20:10;3.10;;;2.23;;
70946;SDS011;58605;48.700;8.760;2022-09-27T04:22:37;2.00;;;1.70;;
70946;SDS011;58605;48.700;8.760;2022-09-27T04:25:05;2.80;;;1.90;;
70946;SDS011;58605;48.700;8.760;2022-09-27T04:27:33;4.23;;;2.07;;
70946;SDS011;58605;48.700;8.760;2022-09-27T04:29:59;3.40;;;1.90;;
70946;SDS011;58605;48.700;8.760;2022-09-27T04:32:25;2.70;;;1.63;;
70946;SDS011;58605;48.700;8.760;2022-09-27T04:34:52;2.43;;;1.87;;
70946;SDS011;58605;48.700;8.760;2022-09-27T04:37:56;2.80;;;1.80;;
70946;SDS011;58605;48.700;8.760;2022-09-27T04:40:22;3.07;;;2.10;;
70946;SDS011;58605;48.700;8.760;2022-09-27T04:42:50;3.23;;;2.43;;
70946;SDS011;58605;48.700;8.760;2022-09-27T04:45:16;3.00;;;1.90;;
70946;SDS011;58605;48.700;8.760;2022-09-27T04:47:42;5.37;;;1.90;;
70946;SDS011;58605;48.700;8.760;2022-09-27T04:50:09;3.33;;;1.97;;
70946;SDS011;58605;48.700;8.760;2022-09-27T04:52:35;2.93;;;1.93;;
70946;SDS011;58605;48.700;8.760;2022-09-27T04:55:01;2.70;;;1.97;;
70946;SDS011;58605;48.700;8.760;2022-09-27T04:57:27;3.07;;;2.07;;
70946;SDS011;58605;48.700;8.760;2022-09-27T04:59:55;1.70;;;1.60;;
70946;SDS011;58605;48.700;8.760;2022-09-27T05:02:23;3.63;;;1.67;;
70946;SDS011;58605;48.700;8.760;2022-09-27T05:04:49;11.00;;;3.50;;
70946;SDS011;58605;48.700;8.760;2022-09-27T05:07:15;3.07;;;1.70;;
70946;SDS011;58605;48.700;8.760;2022-09-27T05:09:41;3.40;;;1.43;;
70946;SDS011;58605;48.700;8.760;2022-09-27T05:12:07;4.57;;;1.70;;
70946;SDS011;58605;48.700;8.760;2022-09-27T05:14:33;1.80;;;1.57;;
70946;SDS011;58605;48.700;8.760;2022-09-27T05:17:01;2.03;;;1.67;;
70946;SDS011;58605;48.700;8.760;2022-09-27T05:19:27;1.23;;;1.13;;
70946;SDS011;58605;48.700;8.760;2022-09-27T05:21:53;3.37;;;1.60;;
70946;SDS011;58605;48.700;8.760;2022-09-27T05:24:19;1.97;;;1.50;;
70946;SDS011;58605;48.700;8.760;2022-09-27T05:26:45;3.23;;;1.67;;
70946;SDS011;58605;48.700;8.760;2022-09-27T05:29:11;1.77;;;1.60;;
70946;SDS011;58605;48.700;8.760;2022-09-27T05:31:37;1.40;;;1.30;;
70946;SDS011;58605;48.700;8.760;2022-09-27T05:34:05;1.50;;;1.30;;
70946;SDS011;58605;48.700;8.760;2022-09-27T05:36:33;2.17;;;1.47;;
70946;SDS011;58605;48.700;8.760;2022-09-27T05:38:59;1.60;;;1.50;;
70946;SDS011;58605;48.700;8.760;2022-09-27T05:41:25;1.50;;;1.40;;
70946;SDS011;58605;48.700;8.760;2022-09-27T05:43:51;2.30;;;1.40;;
70946;SDS011;58605;48.700;8.760;2022-09-27T05:46:17;1.60;;;1.50;;
70946;SDS011;58605;48.700;8.760;2022-09-27T05:48:43;1.10;;;1.10;;
70946;SDS011;58605;48.700;8.760;2022-09-27T05:51:10;1.47;;;1.37;;
70946;SDS011;58605;48.700;8.760;2022-09-27T05:53:37;1.30;;;1.30;;
70946;SDS011;58605;48.700;8.760;2022-09-27T05:56:03;1.60;;;1.50;;
70946;SDS011;58605;48.700;8.760;2022-09-27T05:58:29;1.60;;;1.50;;
70946;SDS011;58605;48.700;8.760;2022-09-27T06:00:55;1.70;;;1.60;;
70946;SDS011;58605;48.700;8.760;2022-09-27T06:03:22;2.10;;;1.77;;
70946;SDS011;58605;48.700;8.760;2022-09-27T06:05:48;2.17;;;1.60;;
70946;SDS011;58605;48.700;8.760;2022-09-27T06:08:15;1.97;;;1.60;;
70946;SDS011;58605;48.700;8.760;2022-09-27T06:10:41;2.47;;;1.50;;
70946;SDS011;58605;48.700;8.760;2022-09-27T06:13:09;2.50;;;1.53;;
70946;SDS011;58605;48.700;8.760;2022-09-27T06:15:37;1.73;;;1.50;;
70946;SDS011;58605;48.700;8.760;2022-09-27T06:18:05;1.20;;;1.20;;
70946;SDS011;58605;48.700;8.760;2022-09-27T06:20:32;2.70;;;1.50;;
70946;SDS011;58605;48.700;8.760;2022-09-27T06:23:05;2.37;;;1.00;;
70946;SDS011;58605;48.700;8.760;2022-09-27T06:25:34;1.30;;;1.20;;
70946;SDS011;58605;48.700;8.760;2022-09-27T06:28:01;1.20;;;1.20;;
70946;SDS011;58605;48.700;8.760;2022-09-27T06:30:28;3.97;;;1.73;;
70946;SDS011;58605;48.700;8.760;2022-09-27T06:32:54;1.50;;;1.40;;
70946;SDS011;58605;48.700;8.760;2022-09-27T06:35:22;1.70;;;1.60;;
70946;SDS011;58605;48.700;8.760;2022-09-27T06:37:49;2.27;;;1.27;;
70946;SDS011;58605;48.700;8.760;2022-09-27T06:40:15;1.40;;;1.30;;
70946;SDS011;58605;48.700;8.760;2022-09-27T06:42:43;1.50;;;1.40;;
70946;SDS011;58605;48.700;8.760;2022-09-27T06:45:09;1.10;;;1.10;;
70946;SDS011;58605;48.700;8.760;2022-09-27T06:47:36;1.33;;;1.23;;
70946;SDS011;58605;48.700;8.760;2022-09-27T06:50:02;1.40;;;1.30;;
70946;SDS011;58605;48.700;8.760;2022-09-27T06:52:30;1.20;;;1.20;;
70946;SDS011;58605;48.700;8.760;2022-09-27T06:54:56;1.10;;;1.10;;
70946;SDS011;58605;48.700;8.760;2022-09-27T06:57:22;1.43;;;1.33;;
70946;SDS011;58605;48.700;8.760;2022-09-27T07:00:10;1.53;;;1.43;;
70946;SDS011;58605;48.700;8.760;2022-09-27T07:02:50;1.20;;;1.20;;
70946;SDS011;58605;48.700;8.760;2022-09-27T07:05:16;2.50;;;1.10;;
70946;SDS011;58605;48.700;8.760;2022-09-27T07:07:43;1.27;;;1.20;;
70946;SDS011;58605;48.700;8.760;2022-09-27T07:10:09;1.20;;;1.20;;
70946;SDS011;58605;48.700;8.760;2022-09-27T07:12:35;1.80;;;1.70;;
70946;SDS011;58605;48.700;8.760;2022-09-27T07:15:02;2.10;;;1.27;;
70946;SDS011;58605;48.700;8.760;2022-09-27T07:17:30;1.30;;;1.20;;
70946;SDS011;58605;48.700;8.760;2022-09-27T07:19:56;2.17;;;1.57;;
70946;SDS011;58605;48.700;8.760;2022-09-27T07:22:22;1.57;;;1.30;;
70946;SDS011;58605;48.700;8.760;2022-09-27T07:24:48;0.90;;;0.90;;
70946;SDS011;58605;48.700;8.760;2022-09-27T07:27:14;2.33;;;1.20;;
70946;SDS011;58605;48.700;8.760;2022-09-27T07:29:40;1.03;;;0.93;;
70946;SDS011;58605;48.700;8.760;2022-09-27T07:32:06;1.47;;;1.20;;
70946;SDS011;58605;48.700;8.760;2022-09-27T07:34:34;2.63;;;1.20;;
70946;SDS011;58605;48.700;8.760;2022-09-27T07:37:00;1.10;;;1.10;;
70946;SDS011;58605;48.700;8.760;2022-09-27T07:39:27;2.10;;;1.30;;
70946;SDS011;58605;48.700;8.760;2022-09-27T07:41:53;1.37;;;1.10;;
70946;SDS011;58605;48.700;8.760;2022-09-27T07:44:19;1.10;;;1.10;;
70946;SDS011;58605;48.700;8.760;2022-09-27T07:46:45;2.67;;;1.57;;
70946;SDS011;58605;48.700;8.760;2022-09-27T07:49:11;1.20;;;1.20;;
70946;SDS011;58605;48.700;8.760;2022-09-27T07:51:38;1.57;;;1.47;;
70946;SDS011;58605;48.700;8.760;2022-09-27T07:54:05;1.50;;;1.40;;
70946;SDS011;58605;48.700;8.760;2022-09-27T07:56:31;1.37;;;1.20;;
70946;SDS011;58605;48.700;8.760;2022-09-27T07:58:57;1.47;;;1.33;;
70946;SDS011;58605;48.700;8.760;2022-09-27T08:01:23;1.47;;;1.20;;
70946;SDS011;58605;48.700;8.760;2022-09-27T08:03:50;1.73;;;1.20;;
70946;SDS011;58605;48.700;8.760;2022-09-27T08:06:16;1.20;;;1.20;;
70946;SDS011;58605;48.700;8.760;2022-09-27T08:08:44;1.27;;;1.13;;
70946;SDS011;58605;48.700;8.760;2022-09-27T08:11:11;1.50;;;1.40;;
70946;SDS011;58605;48.700;8.760;2022-09-27T08:13:39;1.00;;;1.00;;
70946;SDS011;58605;48.700;8.760;2022-09-27T08:16:05;1.37;;;1.27;;
70946;SDS011;58605;48.700;8.760;2022-09-27T08:18:31;1.50;;;1.40;;
70946;SDS011;58605;48.700;8.760;2022-09-27T08:20:57;1.40;;;1.30;;
70946;SDS011;58605;48.700;8.760;2022-09-27T08:23:24;2.10;;;1.40;;
70946;SDS011;58605;48.700;8.760;2022-09-27T08:25:52;3.13;;;1.23;;
70946;SDS011;58605;48.700;8.760;2022-09-27T08:28:19;1.50;;;1.10;;
70946;SDS011;58605;48.700;8.760;2022-09-27T08:30:46;1.67;;;1.50;;
70946;SDS011;58605;48.700;8.760;2022-09-27T08:33:12;1.70;;;1.47;;
70946;SDS011;58605;48.700;8.760;2022-09-27T08:35:38;1.40;;;1.30;;
70946;SDS011;58605;48.700;8.760;2022-09-27T08:38:04;1.50;;;1.40;;
70946;SDS011;58605;48.700;8.760;2022-09-27T08:40:36;1.30;;;1.20;;
70946;SDS011;58605;48.700;8.760;2022-09-27T08:43:12;1.90;;;1.50;;
70946;SDS011;58605;48.700;8.760;2022-09-27T08:45:52;1.40;;;1.30;;
70946;SDS011;58605;48.700;8.760;2022-09-27T08:48:27;1.77;;;1.30;;
70946;SDS011;58605;48.700;8.760;2022-09-27T08:50:54;1.10;;;1.10;;
70946;SDS011;58605;48.700;8.760;2022-09-27T08:53:22;1.20;;;1.20;;
70946;SDS011;58605;48.700;8.760;2022-09-27T08:55:52;1.37;;;1.27;;
70946;SDS011;58605;48.700;8.760;2022-09-27T08:58:22;1.23;;;1.23;;
70946;SDS011;58605;48.700;8.760;2022-09-27T09:00:50;1.73;;;1.37;;
70946;SDS011;58605;48.700;8.760;2022-09-27T09:03:20;1.30;;;1.30;;
70946;SDS011;58605;48.700;8.760;2022-09-27T09:05:51;2.60;;;1.30;;
70946;SDS011;58605;48.700;8.760;2022-09-27T09:08:30;1.30;;;1.30;;
70946;SDS011;58605;48.700;8.760;2022-09-27T09:11:04;1.60;;;1.50;;
70946;SDS011;58605;48.700;8.760;2022-09-27T09:14:10;1.90;;;1.60;;
70946;SDS011;58605;48.700;8.760;2022-09-27T09:16:48;1.73;;;1.47;;
70946;SDS011;58605;48.700;8.760;2022-09-27T09:19:31;12.77;;;2.27;;
70946;SDS011;58605;48.700;8.760;2022-09-27T09:22:07;2.00;;;1.90;;
70946;SDS011;58605;48.700;8.760;2022-09-27T09:24:49;1.63;;;1.50;;
70946;SDS011;58605;48.700;8.760;2022-09-27T09:27:28;2.03;;;1.50;;
70946;SDS011;58605;48.700;8.760;2022-09-27T09:30:06;1.60;;;1.50;;
70946;SDS011;58605;48.700;8.760;2022-09-27T09:32:45;1.90;;;1.70;;
70946;SDS011;58605;48.700;8.760;2022-09-27T09:35:22;1.50;;;1.40;;
70946;SDS011;58605;48.700;8.760;2022-09-27T09:37:52;4.30;;;2.53;;
70946;SDS011;58605;48.700;8.760;2022-09-27T09:40:22;1.47;;;1.37;;
70946;SDS011;58605;48.700;8.760;2022-09-27T09:42:53;2.07;;;1.70;;
70946;SDS011;58605;48.700;8.760;2022-09-27T09:45:27;1.93;;;1.80;;
70946;SDS011;58605;48.700;8.760;2022-09-27T09:47:56;1.70;;;1.60;;
70946;SDS011;58605;48.700;8.760;2022-09-27T09:50:29;2.10;;;1.70;;
70946;SDS011;58605;48.700;8.760;2022-09-27T09:53:02;2.60;;;2.10;;
70946;SDS011;58605;48.700;8.760;2022-09-27T09:55:37;1.90;;;1.80;;
70946;SDS011;58605;48.700;8.760;2022-09-27T09:58:11;3.63;;;1.97;;
70946;SDS011;58605;48.700;8.760;2022-09-27T10:00:48;3.47;;;1.77;;
70946;SDS011;58605;48.700;8.760;2022-09-27T10:03:17;2.63;;;1.80;;
70946;SDS011;58605;48.700;8.760;2022-09-27T10:05:44;2.33;;;2.10;;
70946;SDS011;58605;48.700;8.760;2022-09-27T10:08:11;2.17;;;1.60;;
70946;SDS011;58605;48.700;8.760;2022-09-27T10:10:42;2.73;;;1.93;;
70946;SDS011;58605;48.700;8.760;2022-09-27T10:13:08;2.63;;;1.73;;
70946;SDS011;58605;48.700;8.760;2022-09-27T10:15:40;2.70;;;2.03;;
70946;SDS011;58605;48.700;8.760;2022-09-27T10:18:11;4.00;;;2.00;;
70946;SDS011;58605;48.700;8.760;2022-09-27T10:20:42;2.80;;;1.87;;
70946;SDS011;58605;48.700;8.760;2022-09-27T10:23:15;2.10;;;1.90;;
70946;SDS011;58605;48.700;8.760;2022-09-27T10:25:45;3.30;;;2.03;;
70946;SDS011;58605;48.700;8.760;2022-09-27T10:31:10;1.97;;;1.70;;
70946;SDS011;58605;48.700;8.760;2022-09-27T10:33:50;2.90;;;1.73;;
70946;SDS011;58605;48.700;8.760;2022-09-27T10:36:21;1.80;;;1.70;;
70946;SDS011;58605;48.700;8.760;2022-09-27T10:38:50;2.73;;;1.90;;
70946;SDS011;58605;48.700;8.760;2022-09-27T10:41:21;5.27;;;1.97;;
70946;SDS011;58605;48.700;8.760;2022-09-27T10:43:49;2.97;;;1.87;;
70946;SDS011;58605;48.700;8.760;2022-09-27T10:46:19;2.20;;;1.73;;
70946;SDS011;58605;48.700;8.760;2022-09-27T10:51:41;2.63;;;1.77;;
70946;SDS011;58605;48.700;8.760;2022-09-27T10:54:16;2.10;;;1.97;;
70946;SDS011;58605;48.700;8.760;2022-09-27T10:56:44;4.37;;;1.87;;
70946;SDS011;58605;48.700;8.760;2022-09-27T10:59:21;2.10;;;1.90;;
70946;SDS011;58605;48.700;8.760;2022-09-27T11:01:48;3.47;;;2.00;;
70946;SDS011;58605;48.700;8.760;2022-09-27T11:04:20;2.30;;;1.73;;
70946;SDS011;58605;48.700;8.760;2022-09-27T11:06:50;2.20;;;2.00;;
70946;SDS011;58605;48.700;8.760;2022-09-27T11:09:18;2.37;;;1.70;;
70946;SDS011;58605;48.700;8.760;2022-09-27T11:11:48;2.97;;;1.73;;
70946;SDS011;58605;48.700;8.760;2022-09-27T11:14:21;3.10;;;1.80;;
70946;SDS011;58605;48.700;8.760;2022-09-27T11:16:56;3.43;;;1.70;;
70946;SDS011;58605;48.700;8.760;2022-09-27T11:19:36;1.83;;;1.70;;
70946;SDS011;58605;48.700;8.760;2022-09-27T11:22:26;1.50;;;1.40;;
70946;SDS011;58605;48.700;8.760;2022-09-27T11:25:14;2.20;;;1.73;;
70946;SDS011;58605;48.700;8.760;2022-09-27T11:27:49;1.83;;;1.50;;
70946;SDS011;58605;48.700;8.760;2022-09-27T11:30:27;1.23;;;1.20;;
70946;SDS011;58605;48.700;8.760;2022-09-27T11:33:11;1.33;;;1.20;;
70946;SDS011;58605;48.700;8.760;2022-09-27T11:35:58;2.07;;;1.20;;
70946;SDS011;58605;48.700;8.760;2022-09-27T11:38:29;1.30;;;1.20;;
70946;SDS011;58605;48.700;8.760;2022-09-27T11:41:10;1.37;;;1.27;;
70946;SDS011;58605;48.700;8.760;2022-09-27T11:43:49;2.93;;;1.43;;
70946;SDS011;58605;48.700;8.760;2022-09-27T11:46:35;1.50;;;1.40;;
70946;SDS011;58605;48.700;8.760;2022-09-27T11:52:19;1.30;;;1.20;;
70946;SDS011;58605;48.700;8.760;2022-09-27T11:57:45;1.40;;;1.30;;
70946;SDS011;58605;48.700;8.760;2022-09-27T12:00:18;1.50;;;1.40;;
70946;SDS011;58605;48.700;8.760;2022-09-27T12:02:54;1.23;;;1.23;;
70946;SDS011;58605;48.700;8.760;2022-09-27T12:05:41;1.53;;;1.40;;
70946;SDS011;58605;48.700;8.760;2022-09-27T12:08:24;1.57;;;1.40;;
70946;SDS011;58605;48.700;8.760;2022-09-27T12:10:59;1.50;;;1.40;;
70946;SDS011;58605;48.700;8.760;2022-09-27T12:13:39;1.10;;;1.10;;
70946;SDS011;58605;48.700;8.760;2022-09-27T12:16:08;1.67;;;1.50;;
70946;SDS011;58605;48.700;8.760;2022-09-27T12:18:36;1.20;;;1.20;;
70946;SDS011;58605;48.700;8.760;2022-09-27T12:21:03;1.47;;;1.37;;
70946;SDS011;58605;48.700;8.760;2022-09-27T12:23:35;1.90;;;1.53;;
70946;SDS011;58605;48.700;8.760;2022-09-27T12:26:06;2.23;;;1.30;;
70946;SDS011;58605;48.700;8.760;2022-09-27T12:28:37;1.73;;;1.30;;
70946;SDS011;58605;48.700;8.760;2022-09-27T12:31:12;1.10;;;1.10;;
70946;SDS011;58605;48.700;8.760;2022-09-27T12:33:43;2.03;;;1.50;;
70946;SDS011;58605;48.700;8.760;2022-09-27T12:36:16;1.17;;;1.17;;
70946;SDS011;58605;48.700;8.760;2022-09-27T12:38:46;1.30;;;1.20;;
70946;SDS011;58605;48.700;8.760;2022-09-27T12:41:20;1.50;;;1.40;;
70946;SDS011;58605;48.700;8.760;2022-09-27T12:43:48;1.13;;;1.13;;
70946;SDS011;58605;48.700;8.760;2022-09-27T12:46:16;2.10;;;1.50;;
70946;SDS011;58605;48.700;8.760;2022-09-27T12:49:04;1.83;;;1.20;;
70946;SDS011;58605;48.700;8.760;2022-09-27T12:51:35;1.50;;;1.40;;
70946;SDS011;58605;48.700;8.760;2022-09-27T12:54:13;1.40;;;1.30;;
70946;SDS011;58605;48.700;8.760;2022-09-27T12:56:59;1.40;;;1.30;;
70946;SDS011;58605;48.700;8.760;2022-09-27T12:59:36;1.37;;;1.33;;
70946;SDS011;58605;48.700;8.760;2022-09-27T13:02:26;1.40;;;1.20;;
70946;SDS011;58605;48.700;8.760;2022-09-27T13:05:33;1.20;;;1.20;;
70946;SDS011;58605;48.700;8.760;2022-09-27T13:08:15;1.47;;;1.10;;
70946;SDS011;58605;48.700;8.760;2022-09-27T13:10:55;1.10;;;1.10;;
70946;SDS011;58605;48.700;8.760;2022-09-27T13:13:31;1.40;;;1.30;;
70946;SDS011;58605;48.700;8.760;2022-09-27T13:15:59;2.63;;;1.47;;
70946;SDS011;58605;48.700;8.760;2022-09-27T13:18:31;1.30;;;1.20;;
70946;SDS011;58605;48.700;8.760;2022-09-27T13:21:13;1.40;;;1.30;;
70946;SDS011;58605;48.700;8.760;2022-09-27T13:24:29;1.93;;;1.30;;
70946;SDS011;58605;48.700;8.760;2022-09-27T13:39:15;1.43;;;1.30;;
70946;SDS011;58605;48.700;8.760;2022-09-27T13:42:07;1.23;;;1.23;;
70946;SDS011;58605;48.700;8.760;2022-09-27T13:44:51;1.30;;;1.20;;
70946;SDS011;58605;48.700;8.760;2022-09-27T13:47:28;1.47;;;1.33;;
70946;SDS011;58605;48.700;8.760;2022-09-27T13:50:01;1.57;;;1.47;;
70946;SDS011;58605;48.700;8.760;2022-09-27T13:52:54;1.50;;;1.40;;
70946;SDS011;58605;48.700;8.760;2022-09-27T13:58:14;1.30;;;1.20;;
70946;SDS011;58605;48.700;8.760;2022-09-27T14:01:02;1.30;;;1.13;;
70946;SDS011;58605;48.700;8.760;2022-09-27T14:06:28;1.00;;;1.00;;
70946;SDS011;58605;48.700;8.760;2022-09-27T14:08:56;1.50;;;1.40;;
70946;SDS011;58605;48.700;8.760;2022-09-27T14:11:27;1.43;;;1.37;;
70946;SDS011;58605;48.700;8.760;2022-09-27T14:13:56;2.20;;;1.23;;
70946;SDS011;58605;48.700;8.760;2022-09-27T14:16:25;1.30;;;1.20;;
70946;SDS011;58605;48.700;8.760;2022-09-27T14:18:55;1.73;;;1.23;;
70946;SDS011;58605;48.700;8.760;2022-09-27T14:21:27;1.43;;;1.33;;
70946;SDS011;58605;48.700;8.760;2022-09-27T14:26:49;1.60;;;1.20;;
70946;SDS011;58605;48.700;8.760;2022-09-27T14:29:30;1.40;;;1.30;;
70946;SDS011;58605;48.700;8.760;2022-09-27T14:32:05;1.57;;;1.20;;
70946;SDS011;58605;48.700;8.760;2022-09-27T14:34:34;1.23;;;1.20;;
70946;SDS011;58605;48.700;8.760;2022-09-27T14:37:00;1.43;;;1.30;;
70946;SDS011;58605;48.700;8.760;2022-09-27T14:39:45;1.13;;;1.13;;
70946;SDS011;58605;48.700;8.760;2022-09-27T14:42:19;1.30;;;1.10;;
70946;SDS011;58605;48.700;8.760;2022-09-27T14:44:46;1.97;;;1.50;;
70946;SDS011;58605;48.700;8.760;2022-09-27T14:47:17;1.00;;;1.00;;
70946;SDS011;58605;48.700;8.760;2022-09-27T14:49:46;1.70;;;1.20;;
70946;SDS011;58605;48.700;8.760;2022-09-27T14:52:18;2.00;;;1.10;;
70946;SDS011;58605;48.700;8.760;2022-09-27T14:54:54;1.40;;;1.30;;
70946;SDS011;58605;48.700;8.760;2022-09-27T14:57:22;1.73;;;1.63;;
70946;SDS011;58605;48.700;8.760;2022-09-27T14:59:49;1.47;;;1.20;;
70946;SDS011;58605;48.700;8.760;2022-09-27T15:02:17;1.40;;;1.30;;
70946;SDS011;58605;48.700;8.760;2022-09-27T15:04:46;0.90;;;0.90;;
70946;SDS011;58605;48.700;8.760;2022-09-27T15:07:15;1.20;;;1.10;;
70946;SDS011;58605;48.700;8.760;2022-09-27T15:09:41;1.00;;;0.90;;
70946;SDS011;58605;48.700;8.760;2022-09-27T15:12:09;1.37;;;1.23;;
70946;SDS011;58605;48.700;8.760;2022-09-27T15:14:40;2.70;;;1.20;;
70946;SDS011;58605;48.700;8.760;2022-09-27T15:17:13;2.13;;;1.30;;
70946;SDS011;58605;48.700;8.760;2022-09-27T15:20:01;2.07;;;1.33;;
70946;SDS011;58605;48.700;8.760;2022-09-27T15:22:32;1.97;;;1.40;;
70946;SDS011;58605;48.700;8.760;2022-09-27T15:25:14;1.60;;;1.50;;
70946;SDS011;58605;48.700;8.760;2022-09-27T15:27:45;1.37;;;1.27;;
70946;SDS011;58605;48.700;8.760;2022-09-27T15:30:17;1.23;;;1.13;;
70946;SDS011;58605;48.700;8.760;2022-09-27T15:32:58;2.03;;;1.60;;
70946;SDS011;58605;48.700;8.760;2022-09-27T15:35:27;1.50;;;1.40;;
70946;SDS011;58605;48.700;8.760;2022-09-27T15:38:20;1.50;;;1.40;;
70946;SDS011;58605;48.700;8.760;2022-09-27T15:43:33;1.53;;;1.30;;
70946;SDS011;58605;48.700;8.760;2022-09-27T15:46:04;1.60;;;1.50;;
70946;SDS011;58605;48.700;8.760;2022-09-27T15:49:12;1.60;;;1.50;;
70946;SDS011;58605;48.700;8.760;2022-09-27T15:51:47;2.03;;;1.50;;